createdAt,value
2017-10-14T00:00:57.968Z,0
2017-10-14T00:01:57.966Z,0
2017-10-14T00:02:57.984Z,0
2017-10-14T00:03:57.968Z,0
2017-10-14T00:04:57.970Z,0
2017-10-14T00:05:57.976Z,0
2017-10-14T00:06:57.982Z,0
2017-10-14T00:07:57.987Z,0
2017-10-14T00:08:58.059Z,0
2017-10-14T00:09:57.954Z,0
2017-10-14T00:10:57.885Z,0
2017-10-14T00:11:58.001Z,0
2017-10-14T00:12:57.949Z,0
2017-10-14T00:13:57.944Z,0
2017-10-14T00:14:57.928Z,0
2017-10-14T00:15:57.958Z,0
2017-10-14T00:16:57.970Z,0
2017-10-14T00:17:57.944Z,0
2017-10-14T00:18:57.956Z,0
2017-10-14T00:19:57.958Z,0
2017-10-14T00:20:58.030Z,0
2017-10-14T00:21:58.040Z,0
2017-10-14T00:22:58.027Z,0
2017-10-14T00:23:58.038Z,0
2017-10-14T00:24:57.984Z,0
2017-10-14T00:25:57.980Z,0
2017-10-14T00:26:57.941Z,0
2017-10-14T00:27:57.967Z,0
2017-10-14T00:28:57.986Z,0
2017-10-14T00:29:58.038Z,0
2017-10-14T00:30:58.030Z,0
2017-10-14T00:31:58.067Z,0
2017-10-14T00:32:58.019Z,0
2017-10-14T00:33:57.951Z,0
2017-10-14T00:34:58.042Z,0
2017-10-14T00:35:57.953Z,0
2017-10-14T00:36:58.072Z,0
2017-10-14T00:37:57.951Z,0
2017-10-14T00:38:58.013Z,0
2017-10-14T00:39:58.065Z,0
2017-10-14T00:40:57.978Z,0
2017-10-14T00:41:58.018Z,0
2017-10-14T00:42:57.989Z,0
2017-10-14T00:43:57.979Z,0
2017-10-14T00:44:58.045Z,0
2017-10-14T00:45:58.049Z,0
2017-10-14T00:46:58.048Z,0
2017-10-14T00:47:58.072Z,0
2017-10-14T00:48:57.981Z,0
2017-10-14T00:49:58.181Z,0
2017-10-14T00:50:58.053Z,0
2017-10-14T00:51:57.993Z,0
2017-10-14T00:52:58.075Z,0
2017-10-14T00:53:57.987Z,0
2017-10-14T00:54:57.983Z,0
2017-10-14T00:55:57.960Z,0
2017-10-14T00:56:58.047Z,0
2017-10-14T00:57:58.061Z,0
2017-10-14T00:59:58.002Z,0
2017-10-14T01:00:58.095Z,0
2017-10-14T01:01:58.015Z,0
2017-10-14T01:02:58.089Z,0
2017-10-14T01:03:58.020Z,0
2017-10-14T01:04:58.094Z,0
2017-10-14T01:05:58.095Z,0
2017-10-14T01:06:58.017Z,0
2017-10-14T01:07:58.097Z,0
2017-10-14T01:08:58.008Z,0
2017-10-14T01:09:58.030Z,0
2017-10-14T01:10:58.023Z,0
2017-10-14T01:11:58.010Z,0
2017-10-14T01:12:57.987Z,0
2017-10-14T01:13:58.005Z,0
2017-10-14T01:14:57.980Z,0
2017-10-14T01:15:57.965Z,0
2017-10-14T01:16:58.030Z,0
2017-10-14T01:17:57.922Z,0
2017-10-14T01:18:57.988Z,0
2017-10-14T01:19:58.099Z,0
2017-10-14T01:20:58.013Z,0
2017-10-14T01:21:58.014Z,0
2017-10-14T01:22:58.030Z,0
2017-10-14T01:23:58.040Z,0
2017-10-14T01:24:58.100Z,0
2017-10-14T01:25:58.046Z,0
2017-10-14T01:26:58.117Z,0
2017-10-14T01:27:58.123Z,0
2017-10-14T01:28:58.020Z,0
2017-10-14T01:29:58.107Z,0
2017-10-14T01:30:58.023Z,0
2017-10-14T01:31:58.033Z,0
2017-10-14T01:32:58.285Z,0
2017-10-14T01:33:58.021Z,0
2017-10-14T01:34:58.018Z,0
2017-10-14T01:35:58.107Z,0
2017-10-14T01:36:58.022Z,0
2017-10-14T01:37:58.025Z,0
2017-10-14T01:38:58.023Z,0
2017-10-14T01:39:58.049Z,0
2017-10-14T01:40:58.079Z,0
2017-10-14T01:41:57.987Z,0
2017-10-14T01:42:58.077Z,0
2017-10-14T01:43:57.987Z,0
2017-10-14T01:44:58.014Z,0
2017-10-14T01:45:58.007Z,0
2017-10-14T01:46:58.087Z,0
2017-10-14T01:47:58.087Z,0
2017-10-14T01:48:58.085Z,0
2017-10-14T01:49:57.970Z,0
2017-10-14T01:50:57.986Z,0
2017-10-14T01:51:57.975Z,0
2017-10-14T01:52:58.026Z,0
2017-10-14T01:53:57.947Z,0
2017-10-14T01:54:57.938Z,0
2017-10-14T01:55:58.029Z,0
2017-10-14T01:56:57.928Z,0
2017-10-14T01:57:57.940Z,0
2017-10-14T01:58:57.987Z,0
2017-10-14T01:59:58.090Z,0
2017-10-14T02:00:58.025Z,0
2017-10-14T02:01:58.025Z,0
2017-10-14T02:02:58.114Z,0
2017-10-14T02:03:58.022Z,0
2017-10-14T02:04:58.085Z,0
2017-10-14T02:05:58.082Z,0
2017-10-14T02:06:58.028Z,0
2017-10-14T02:07:58.101Z,0
2017-10-14T02:08:58.096Z,0
2017-10-14T02:09:58.118Z,0
2017-10-14T02:10:58.006Z,0
2017-10-14T02:11:58.004Z,0
2017-10-14T02:12:58.004Z,0
2017-10-14T02:13:58.068Z,0
2017-10-14T02:14:58.095Z,0
2017-10-14T02:15:58.025Z,0
2017-10-14T02:16:58.101Z,0
2017-10-14T02:17:58.031Z,0
2017-10-14T02:18:58.028Z,0
2017-10-14T02:19:58.049Z,0
2017-10-14T02:20:58.043Z,0
2017-10-14T02:21:58.134Z,0
2017-10-14T02:22:58.051Z,0
2017-10-14T02:23:58.052Z,0
2017-10-14T02:24:58.138Z,0
2017-10-14T02:25:58.074Z,0
2017-10-14T02:26:58.133Z,0
2017-10-14T02:27:58.058Z,0
2017-10-14T02:28:58.135Z,0
2017-10-14T02:29:58.031Z,0
2017-10-14T02:30:58.036Z,0
2017-10-14T02:31:58.104Z,0
2017-10-14T02:32:58.132Z,0
2017-10-14T02:33:58.104Z,0
2017-10-14T02:34:58.088Z,0
2017-10-14T02:35:58.113Z,0
2017-10-14T02:36:58.001Z,0
2017-10-14T02:37:58.141Z,0
2017-10-14T02:38:58.047Z,0
2017-10-14T02:39:58.144Z,0
2017-10-14T02:40:58.154Z,0
2017-10-14T02:41:58.069Z,0
2017-10-14T02:42:58.079Z,0
2017-10-14T02:43:58.154Z,0
2017-10-14T02:44:58.066Z,0
2017-10-14T02:45:58.158Z,0
2017-10-14T02:46:58.067Z,0
2017-10-14T02:47:58.148Z,0
2017-10-14T02:48:58.070Z,0
2017-10-14T02:49:57.973Z,0
2017-10-14T02:50:58.087Z,0
2017-10-14T02:51:58.071Z,0
2017-10-14T02:52:58.018Z,0
2017-10-14T02:53:58.060Z,0
2017-10-14T02:54:57.973Z,0
2017-10-14T02:55:58.011Z,0
2017-10-14T02:56:58.015Z,0
2017-10-14T02:57:58.073Z,0
2017-10-14T02:58:57.965Z,0
2017-10-14T02:59:58.037Z,0
2017-10-14T03:00:58.031Z,0
2017-10-14T03:01:58.089Z,0
2017-10-14T03:02:58.047Z,0
2017-10-14T03:03:58.075Z,0
2017-10-14T03:04:58.077Z,0
2017-10-14T03:05:57.986Z,0
2017-10-14T03:06:58.046Z,0
2017-10-14T03:07:57.989Z,0
2017-10-14T03:08:58.047Z,0
2017-10-14T03:09:58.168Z,0
2017-10-14T03:10:58.074Z,0
2017-10-14T03:11:58.079Z,0
2017-10-14T03:12:58.077Z,0
2017-10-14T03:13:58.128Z,0
2017-10-14T03:14:58.170Z,0
2017-10-14T03:15:58.079Z,0
2017-10-14T03:16:58.100Z,0
2017-10-14T03:17:58.172Z,0
2017-10-14T03:18:58.096Z,0
2017-10-14T03:19:58.082Z,0
2017-10-14T03:20:58.088Z,0
2017-10-14T03:21:58.085Z,0
2017-10-14T03:22:58.083Z,0
2017-10-14T03:23:58.087Z,0
2017-10-14T03:24:58.091Z,0
2017-10-14T03:25:58.173Z,0
2017-10-14T03:26:58.090Z,0
2017-10-14T03:27:58.123Z,0
2017-10-14T03:28:58.175Z,0
2017-10-14T03:29:58.086Z,0
2017-10-14T03:30:58.088Z,0
2017-10-14T03:31:58.095Z,0
2017-10-14T03:32:58.100Z,0
2017-10-14T03:33:58.106Z,0
2017-10-14T03:34:58.176Z,0
2017-10-14T03:35:58.091Z,0
2017-10-14T03:36:58.096Z,0
2017-10-14T03:37:58.195Z,0
2017-10-14T03:38:58.091Z,0
2017-10-14T03:39:58.133Z,0
2017-10-14T03:40:58.136Z,0
2017-10-14T03:41:58.141Z,0
2017-10-14T03:42:58.049Z,0
2017-10-14T03:43:58.136Z,0
2017-10-14T03:44:58.046Z,0
2017-10-14T03:45:58.146Z,0
2017-10-14T03:46:58.113Z,0
2017-10-14T03:47:58.052Z,0
2017-10-14T03:48:58.098Z,0
2017-10-14T03:49:58.105Z,0
2017-10-14T03:50:58.116Z,0
2017-10-14T03:51:58.191Z,0
2017-10-14T03:52:58.118Z,0
2017-10-14T03:53:58.190Z,0
2017-10-14T03:54:58.106Z,0
2017-10-14T03:55:58.105Z,0
2017-10-14T03:56:58.193Z,0
2017-10-14T03:57:58.110Z,0
2017-10-14T03:58:58.110Z,0
2017-10-14T03:59:58.147Z,0
2017-10-14T04:00:58.198Z,0
2017-10-14T04:01:58.112Z,0
2017-10-14T04:02:58.347Z,0
2017-10-14T04:03:58.110Z,0
2017-10-14T04:04:58.196Z,0
2017-10-14T04:05:58.114Z,0
2017-10-14T04:06:58.113Z,0
2017-10-14T04:07:58.130Z,0
2017-10-14T04:08:58.196Z,0
2017-10-14T04:09:58.075Z,0
2017-10-14T04:10:58.103Z,0
2017-10-14T04:11:58.083Z,0
2017-10-14T04:12:58.162Z,0
2017-10-14T04:13:58.176Z,0
2017-10-14T04:14:58.169Z,0
2017-10-14T04:15:58.107Z,0
2017-10-14T04:16:58.097Z,0
2017-10-14T04:17:58.102Z,0
2017-10-14T04:18:58.193Z,0
2017-10-14T04:19:58.206Z,0
2017-10-14T04:20:58.118Z,0
2017-10-14T04:21:58.120Z,0
2017-10-14T04:22:58.121Z,0
2017-10-14T04:23:58.120Z,0
2017-10-14T04:24:58.120Z,0
2017-10-14T04:25:58.127Z,0
2017-10-14T04:26:58.125Z,0
2017-10-14T04:27:58.210Z,0
2017-10-14T04:28:58.119Z,0
2017-10-14T04:29:58.157Z,0
2017-10-14T04:30:58.123Z,0
2017-10-14T04:31:58.156Z,0
2017-10-14T04:32:58.181Z,0
2017-10-14T04:33:58.112Z,0
2017-10-14T04:34:58.076Z,0
2017-10-14T04:35:58.123Z,0
2017-10-14T04:36:58.185Z,0
2017-10-14T04:37:58.116Z,0
2017-10-14T04:38:58.153Z,0
2017-10-14T04:39:58.215Z,0
2017-10-14T04:40:58.133Z,0
2017-10-14T04:41:58.132Z,0
2017-10-14T04:42:58.129Z,0
2017-10-14T04:43:58.136Z,0
2017-10-14T04:44:58.135Z,0
2017-10-14T04:45:58.133Z,0
2017-10-14T04:46:58.137Z,0
2017-10-14T04:47:58.141Z,0
2017-10-14T04:48:58.138Z,0
2017-10-14T04:49:58.135Z,0
2017-10-14T04:50:58.198Z,0
2017-10-14T04:51:58.166Z,0
2017-10-14T04:52:58.182Z,0
2017-10-14T04:53:58.169Z,0
2017-10-14T04:54:58.136Z,0
2017-10-14T04:55:58.198Z,0
2017-10-14T04:56:58.124Z,0
2017-10-14T04:57:58.126Z,0
2017-10-14T04:58:58.199Z,0
2017-10-14T04:59:58.203Z,0
2017-10-14T05:00:58.143Z,0
2017-10-14T05:01:58.378Z,0
2017-10-14T05:02:58.162Z,0
2017-10-14T05:03:58.232Z,0
2017-10-14T05:04:58.163Z,0
2017-10-14T05:05:58.147Z,0
2017-10-14T05:06:58.147Z,0
2017-10-14T05:07:58.236Z,0
2017-10-14T05:08:58.185Z,0
2017-10-14T05:09:58.235Z,0
2017-10-14T05:10:58.128Z,0
2017-10-14T05:11:58.229Z,0
2017-10-14T05:12:58.132Z,0
2017-10-14T05:13:58.136Z,0
2017-10-14T05:14:58.234Z,0
2017-10-14T05:15:58.212Z,0
2017-10-14T05:16:58.208Z,0
2017-10-14T05:17:58.209Z,0
2017-10-14T05:18:58.214Z,0
2017-10-14T05:19:58.145Z,0
2017-10-14T05:20:58.213Z,0
2017-10-14T05:21:58.159Z,0
2017-10-14T05:22:58.206Z,0
2017-10-14T05:23:58.142Z,0
2017-10-14T05:24:58.133Z,0
2017-10-14T05:25:58.149Z,0
2017-10-14T05:26:58.235Z,0
2017-10-14T05:27:58.236Z,0
2017-10-14T05:28:58.184Z,0
2017-10-14T05:29:58.149Z,0
2017-10-14T05:30:58.193Z,0
2017-10-14T05:31:58.146Z,0
2017-10-14T05:32:58.193Z,0
2017-10-14T05:33:58.215Z,0
2017-10-14T05:34:58.221Z,0
2017-10-14T05:35:58.127Z,0
2017-10-14T05:36:58.155Z,0
2017-10-14T05:37:58.165Z,0
2017-10-14T05:38:58.227Z,0
2017-10-14T05:39:58.193Z,0
2017-10-14T05:40:58.171Z,0
2017-10-14T05:41:58.212Z,0
2017-10-14T05:42:58.167Z,0
2017-10-14T05:43:58.210Z,0
2017-10-14T05:44:58.115Z,0
2017-10-14T05:45:58.215Z,0
2017-10-14T05:46:58.187Z,0
2017-10-14T05:47:58.214Z,0
2017-10-14T05:48:58.212Z,0
2017-10-14T05:49:58.221Z,0
2017-10-14T05:50:58.202Z,0
2017-10-14T05:51:58.082Z,0
2017-10-14T05:52:58.076Z,0
2017-10-14T05:53:58.115Z,0
2017-10-14T05:54:58.145Z,0
2017-10-14T05:55:58.125Z,0
2017-10-14T05:56:58.192Z,0
2017-10-14T05:57:58.087Z,0
2017-10-14T05:58:58.092Z,0
2017-10-14T05:59:58.122Z,0
2017-10-14T06:00:58.276Z,0
2017-10-14T06:01:58.276Z,0
2017-10-14T06:02:58.214Z,0
2017-10-14T06:03:58.268Z,0
2017-10-14T06:04:58.245Z,0
2017-10-14T06:05:58.216Z,0
2017-10-14T06:06:58.245Z,0
2017-10-14T06:07:58.202Z,0
2017-10-14T06:08:58.253Z,0
2017-10-14T06:09:58.179Z,0
2017-10-14T06:10:58.271Z,0
2017-10-14T06:11:58.251Z,0
2017-10-14T06:12:58.189Z,0
2017-10-14T06:13:58.204Z,0
2017-10-14T06:14:58.239Z,0
2017-10-14T06:15:58.250Z,0
2017-10-14T06:16:58.216Z,0
2017-10-14T06:17:58.183Z,0
2017-10-14T06:18:58.223Z,0
2017-10-14T06:19:58.187Z,0
2017-10-14T06:20:58.183Z,0
2017-10-14T06:21:58.187Z,0
2017-10-14T06:22:58.187Z,10
2017-10-14T06:23:58.274Z,16
2017-10-14T06:24:58.266Z,16
2017-10-14T06:25:58.200Z,16
2017-10-14T06:26:58.160Z,18
2017-10-14T06:27:58.193Z,21
2017-10-14T06:28:58.173Z,21
2017-10-14T06:29:58.234Z,18
2017-10-14T06:30:58.160Z,18
2017-10-14T06:31:58.271Z,18
2017-10-14T06:32:58.197Z,19
2017-10-14T06:33:58.224Z,21
2017-10-14T06:34:58.281Z,22
2017-10-14T06:35:58.268Z,21
2017-10-14T06:36:58.281Z,22
2017-10-14T06:37:58.290Z,23
2017-10-14T06:38:58.247Z,24
2017-10-14T06:39:58.286Z,26
2017-10-14T06:40:58.205Z,26
2017-10-14T06:41:58.252Z,29
2017-10-14T06:42:58.198Z,31
2017-10-14T06:43:58.232Z,34
2017-10-14T06:44:58.277Z,36
2017-10-14T06:45:58.252Z,38
2017-10-14T06:46:58.284Z,40
2017-10-14T06:47:58.239Z,40
2017-10-14T06:48:58.291Z,43
2017-10-14T06:49:58.165Z,46
2017-10-14T06:50:58.205Z,48
2017-10-14T06:51:58.320Z,49
2017-10-14T06:52:58.245Z,49
2017-10-14T06:53:58.204Z,84
2017-10-14T06:54:58.157Z,98
2017-10-14T06:55:58.205Z,100
2017-10-14T06:56:58.247Z,102
2017-10-14T06:57:58.251Z,114
2017-10-14T06:58:58.253Z,118
2017-10-14T06:59:58.160Z,118
2017-10-14T07:00:58.198Z,127
2017-10-14T07:01:58.294Z,131
2017-10-14T07:02:58.172Z,134
2017-10-14T07:03:58.176Z,136
2017-10-14T07:04:58.294Z,103
2017-10-14T07:05:58.291Z,86
2017-10-14T07:06:58.274Z,116
2017-10-14T07:07:58.175Z,83
2017-10-14T07:08:58.263Z,145
2017-10-14T07:09:58.260Z,149
2017-10-14T07:10:58.214Z,149
2017-10-14T07:11:58.306Z,150
2017-10-14T07:12:58.180Z,153
2017-10-14T07:13:58.283Z,158
2017-10-14T07:14:58.218Z,160
2017-10-14T07:15:58.242Z,164
2017-10-14T07:16:58.251Z,164
2017-10-14T07:17:58.230Z,169
2017-10-14T07:18:58.305Z,182
2017-10-14T07:19:58.225Z,189
2017-10-14T07:20:58.247Z,189
2017-10-14T07:21:58.328Z,192
2017-10-14T07:22:58.248Z,192
2017-10-14T07:23:58.281Z,192
2017-10-14T07:24:58.212Z,202
2017-10-14T07:25:58.310Z,204
2017-10-14T07:26:58.210Z,206
2017-10-14T07:27:58.311Z,209
2017-10-14T07:28:58.188Z,214
2017-10-14T07:29:58.278Z,211
2017-10-14T07:30:58.298Z,215
2017-10-14T07:31:58.238Z,219
2017-10-14T07:32:58.249Z,224
2017-10-14T07:33:58.234Z,229
2017-10-14T07:34:58.263Z,236
2017-10-14T07:35:58.234Z,236
2017-10-14T07:36:58.198Z,242
2017-10-14T07:37:58.242Z,248
2017-10-14T07:38:58.243Z,256
2017-10-14T07:39:58.348Z,257
2017-10-14T07:40:58.238Z,248
2017-10-14T07:41:58.283Z,254
2017-10-14T07:42:58.186Z,262
2017-10-14T07:43:58.282Z,276
2017-10-14T07:44:58.188Z,324
2017-10-14T07:45:58.279Z,349
2017-10-14T07:46:58.187Z,361
2017-10-14T07:47:58.283Z,259
2017-10-14T07:48:58.280Z,255
2017-10-14T07:49:58.189Z,211
2017-10-14T07:50:58.224Z,203
2017-10-14T07:51:58.294Z,190
2017-10-14T07:52:58.321Z,174
2017-10-14T07:53:58.288Z,160
2017-10-14T07:54:58.227Z,153
2017-10-14T07:55:58.295Z,150
2017-10-14T07:56:58.307Z,171
2017-10-14T07:57:58.281Z,191
2017-10-14T07:58:58.215Z,188
2017-10-14T07:59:58.303Z,183
2017-10-14T08:00:58.284Z,181
2017-10-14T08:01:58.294Z,184
2017-10-14T08:02:58.201Z,180
2017-10-14T08:03:58.202Z,213
2017-10-14T08:04:58.217Z,233
2017-10-14T08:05:58.247Z,273
2017-10-14T08:06:58.197Z,339
2017-10-14T08:07:58.291Z,466
2017-10-14T08:08:58.201Z,394
2017-10-14T08:09:58.249Z,437
2017-10-14T08:10:58.208Z,451
2017-10-14T08:11:58.276Z,229
2017-10-14T08:12:58.313Z,444
2017-10-14T08:13:58.282Z,331
2017-10-14T08:14:58.278Z,449
2017-10-14T08:15:58.277Z,497
2017-10-14T08:16:58.312Z,456
2017-10-14T08:17:58.222Z,281
2017-10-14T08:18:58.282Z,286
2017-10-14T08:19:58.245Z,417
2017-10-14T08:20:58.256Z,347
2017-10-14T08:21:58.343Z,456
2017-10-14T08:22:58.322Z,451
2017-10-14T08:23:58.344Z,473
2017-10-14T08:24:58.297Z,484
2017-10-14T08:25:58.327Z,451
2017-10-14T08:26:58.268Z,342
2017-10-14T08:27:58.331Z,460
2017-10-14T08:28:58.272Z,450
2017-10-14T08:29:58.304Z,435
2017-10-14T08:30:58.343Z,424
2017-10-14T08:31:58.326Z,442
2017-10-14T08:32:58.254Z,474
2017-10-14T08:33:58.293Z,487
2017-10-14T08:34:58.235Z,501
2017-10-14T08:35:58.256Z,491
2017-10-14T08:36:58.347Z,480
2017-10-14T08:37:58.331Z,507
2017-10-14T08:38:58.323Z,527
2017-10-14T08:39:58.271Z,450
2017-10-14T08:40:58.345Z,525
2017-10-14T08:41:58.317Z,531
2017-10-14T08:42:58.238Z,393
2017-10-14T08:43:58.238Z,584
2017-10-14T08:44:58.311Z,594
2017-10-14T08:45:58.237Z,607
2017-10-14T08:46:58.295Z,574
2017-10-14T08:47:58.258Z,550
2017-10-14T08:48:58.246Z,581
2017-10-14T08:49:58.263Z,550
2017-10-14T08:50:58.296Z,506
2017-10-14T08:51:58.328Z,564
2017-10-14T08:52:58.265Z,615
2017-10-14T08:53:58.234Z,583
2017-10-14T08:54:58.262Z,597
2017-10-14T08:55:58.306Z,633
2017-10-14T08:56:58.308Z,644
2017-10-14T08:57:58.345Z,542
2017-10-14T08:58:58.339Z,467
2017-10-14T08:59:58.273Z,507
2017-10-14T09:00:58.279Z,369
2017-10-14T09:01:58.335Z,471
2017-10-14T09:02:58.373Z,454
2017-10-14T09:03:58.357Z,362
2017-10-14T09:04:58.287Z,409
2017-10-14T09:05:58.313Z,379
2017-10-14T09:06:58.331Z,339
2017-10-14T09:07:58.250Z,508
2017-10-14T09:08:58.286Z,383
2017-10-14T09:09:58.377Z,403
2017-10-14T09:10:58.312Z,578
2017-10-14T09:11:58.319Z,585
2017-10-14T09:12:58.328Z,577
2017-10-14T09:13:58.319Z,478
2017-10-14T09:14:58.325Z,483
2017-10-14T09:15:58.361Z,571
2017-10-14T09:16:58.337Z,370
2017-10-14T09:17:58.376Z,375
2017-10-14T09:18:58.380Z,454
2017-10-14T09:19:58.388Z,695
2017-10-14T09:20:58.265Z,440
2017-10-14T09:21:58.249Z,303
2017-10-14T09:22:58.237Z,310
2017-10-14T09:23:58.243Z,278
2017-10-14T09:24:58.210Z,401
2017-10-14T09:25:58.246Z,356
2017-10-14T09:26:58.266Z,377
2017-10-14T09:27:58.283Z,315
2017-10-14T09:28:58.242Z,295
2017-10-14T09:29:58.244Z,685
2017-10-14T09:30:58.286Z,326
2017-10-14T09:31:58.327Z,324
2017-10-14T09:32:58.262Z,313
2017-10-14T09:33:58.354Z,300
2017-10-14T09:34:58.277Z,280
2017-10-14T09:35:58.352Z,271
2017-10-14T09:36:58.286Z,262
2017-10-14T09:37:58.292Z,248
2017-10-14T09:38:58.367Z,261
2017-10-14T09:39:58.360Z,288
2017-10-14T09:40:58.392Z,285
2017-10-14T09:41:58.391Z,273
2017-10-14T09:42:58.338Z,282
2017-10-14T09:43:58.395Z,265
2017-10-14T09:44:58.270Z,290
2017-10-14T09:45:58.340Z,276
2017-10-14T09:46:58.334Z,272
2017-10-14T09:47:58.337Z,349
2017-10-14T09:48:58.375Z,248
2017-10-14T09:49:58.401Z,283
2017-10-14T09:50:58.372Z,306
2017-10-14T09:51:58.337Z,444
2017-10-14T09:52:58.365Z,266
2017-10-14T09:53:58.364Z,692
2017-10-14T09:54:58.284Z,190
2017-10-14T09:55:58.304Z,210
2017-10-14T09:56:58.359Z,202
2017-10-14T09:57:58.375Z,535
2017-10-14T09:58:58.283Z,315
2017-10-14T09:59:58.284Z,226
2017-10-14T10:00:58.330Z,189
2017-10-14T10:01:58.395Z,232
2017-10-14T10:02:58.344Z,197
2017-10-14T10:03:58.382Z,197
2017-10-14T10:04:58.386Z,191
2017-10-14T10:05:58.275Z,537
2017-10-14T10:06:58.345Z,168
2017-10-14T10:07:58.320Z,119
2017-10-14T10:08:58.385Z,117
2017-10-14T10:09:58.379Z,141
2017-10-14T10:10:58.332Z,180
2017-10-14T10:11:58.402Z,171
2017-10-14T10:12:58.406Z,158
2017-10-14T10:13:58.305Z,140
2017-10-14T10:14:58.319Z,264
2017-10-14T10:15:58.321Z,235
2017-10-14T10:16:58.390Z,620
2017-10-14T10:17:58.375Z,672
2017-10-14T10:18:58.376Z,129
2017-10-14T10:19:58.365Z,128
2017-10-14T10:20:58.457Z,134
2017-10-14T10:21:58.319Z,145
2017-10-14T10:22:58.316Z,675
2017-10-14T10:23:58.299Z,242
2017-10-14T10:24:58.420Z,98
2017-10-14T10:25:58.324Z,658
2017-10-14T10:26:58.361Z,123
2017-10-14T10:27:58.294Z,117
2017-10-14T10:28:58.385Z,659
2017-10-14T10:29:58.360Z,695
2017-10-14T10:30:58.361Z,699
2017-10-14T10:31:58.253Z,698
2017-10-14T10:32:58.257Z,707
2017-10-14T10:33:58.342Z,704
2017-10-14T10:34:58.256Z,692
2017-10-14T10:35:58.346Z,750
2017-10-14T10:36:58.261Z,768
2017-10-14T10:37:58.301Z,790
2017-10-14T10:38:58.365Z,299
2017-10-14T10:39:58.310Z,333
2017-10-14T10:40:58.302Z,306
2017-10-14T10:41:58.312Z,795
2017-10-14T10:42:58.326Z,253
2017-10-14T10:43:58.305Z,560
2017-10-14T10:44:58.409Z,235
2017-10-14T10:45:58.309Z,231
2017-10-14T10:46:58.368Z,270
2017-10-14T10:47:58.388Z,765
2017-10-14T10:48:58.408Z,306
2017-10-14T10:49:58.426Z,309
2017-10-14T10:50:58.354Z,750
2017-10-14T10:51:58.325Z,814
2017-10-14T10:52:58.372Z,711
2017-10-14T10:53:58.315Z,801
2017-10-14T10:54:58.313Z,611
2017-10-14T10:55:58.418Z,361
2017-10-14T10:56:58.348Z,264
2017-10-14T10:57:58.356Z,246
2017-10-14T10:58:58.417Z,439
2017-10-14T10:59:58.353Z,236
2017-10-14T11:00:58.445Z,205
2017-10-14T11:01:58.405Z,215
2017-10-14T11:02:58.449Z,214
2017-10-14T11:03:58.445Z,200
2017-10-14T11:04:58.445Z,189
2017-10-14T11:05:58.355Z,212
2017-10-14T11:06:58.357Z,251
2017-10-14T11:07:58.321Z,247
2017-10-14T11:08:58.363Z,167
2017-10-14T11:09:58.422Z,163
2017-10-14T11:10:58.443Z,142
2017-10-14T11:11:58.453Z,153
2017-10-14T11:12:58.354Z,194
2017-10-14T11:13:58.433Z,728
2017-10-14T11:14:58.326Z,106
2017-10-14T11:15:58.362Z,116
2017-10-14T11:16:58.367Z,128
2017-10-14T11:17:58.438Z,645
2017-10-14T11:18:58.452Z,119
2017-10-14T11:19:58.400Z,106
2017-10-14T11:20:58.436Z,107
2017-10-14T11:21:58.367Z,620
2017-10-14T11:22:58.400Z,647
2017-10-14T11:23:58.349Z,630
2017-10-14T11:24:58.366Z,644
2017-10-14T11:25:58.374Z,638
2017-10-14T11:26:58.467Z,642
2017-10-14T11:27:58.364Z,635
2017-10-14T11:28:58.463Z,632
2017-10-14T11:29:58.459Z,626
2017-10-14T11:30:58.379Z,625
2017-10-14T11:31:58.442Z,562
2017-10-14T11:32:58.437Z,630
2017-10-14T11:33:58.353Z,612
2017-10-14T11:34:58.455Z,606
2017-10-14T11:35:58.460Z,613
2017-10-14T11:36:58.416Z,346
2017-10-14T11:37:58.354Z,617
2017-10-14T11:38:58.445Z,553
2017-10-14T11:39:58.469Z,580
2017-10-14T11:40:58.419Z,595
2017-10-14T11:41:58.428Z,586
2017-10-14T11:42:58.369Z,583
2017-10-14T11:43:58.402Z,580
2017-10-14T11:44:58.436Z,560
2017-10-14T11:45:58.380Z,584
2017-10-14T11:46:58.372Z,588
2017-10-14T11:47:58.442Z,589
2017-10-14T11:48:58.346Z,589
2017-10-14T11:49:58.351Z,586
2017-10-14T11:50:58.392Z,580
2017-10-14T11:51:58.343Z,570
2017-10-14T11:52:58.371Z,571
2017-10-14T11:53:58.342Z,579
2017-10-14T11:54:58.438Z,583
2017-10-14T11:55:58.395Z,327
2017-10-14T11:56:58.444Z,85
2017-10-14T11:57:58.371Z,589
2017-10-14T11:58:58.353Z,582
2017-10-14T11:59:58.371Z,592
2017-10-14T12:00:58.459Z,596
2017-10-14T12:01:58.390Z,258
2017-10-14T12:02:58.393Z,590
2017-10-14T12:03:58.390Z,583
2017-10-14T12:04:58.394Z,588
2017-10-14T12:05:58.356Z,581
2017-10-14T12:06:58.486Z,579
2017-10-14T12:07:58.534Z,581
2017-10-14T12:08:58.487Z,571
2017-10-14T12:09:58.467Z,566
2017-10-14T12:10:58.482Z,79
2017-10-14T12:11:58.489Z,568
2017-10-14T12:12:58.432Z,576
2017-10-14T12:13:58.460Z,488
2017-10-14T12:14:58.520Z,554
2017-10-14T12:15:58.464Z,65
2017-10-14T12:16:58.466Z,515
2017-10-14T12:17:58.490Z,250
2017-10-14T12:18:58.395Z,543
2017-10-14T12:19:58.494Z,568
2017-10-14T12:20:58.493Z,561
2017-10-14T12:21:58.401Z,555
2017-10-14T12:22:58.373Z,548
2017-10-14T12:23:58.408Z,555
2017-10-14T12:24:58.402Z,549
2017-10-14T12:25:58.472Z,562
2017-10-14T12:26:58.501Z,558
2017-10-14T12:27:58.474Z,556
2017-10-14T12:28:58.406Z,556
2017-10-14T12:29:58.427Z,544
2017-10-14T12:30:58.402Z,545
2017-10-14T12:31:58.373Z,541
2017-10-14T12:32:58.437Z,539
2017-10-14T12:33:58.441Z,539
2017-10-14T12:34:58.475Z,546
2017-10-14T12:35:58.497Z,562
2017-10-14T12:36:58.500Z,553
2017-10-14T12:37:58.504Z,539
2017-10-14T12:38:58.399Z,530
2017-10-14T12:39:58.395Z,524
2017-10-14T12:40:58.408Z,517
2017-10-14T12:41:58.408Z,512
2017-10-14T12:42:58.425Z,514
2017-10-14T12:43:58.455Z,513
2017-10-14T12:44:58.417Z,513
2017-10-14T12:45:58.499Z,507
2017-10-14T12:46:58.413Z,477
2017-10-14T12:47:58.419Z,509
2017-10-14T12:48:58.384Z,518
2017-10-14T12:49:58.426Z,520
2017-10-14T12:50:58.403Z,518
2017-10-14T12:51:58.477Z,522
2017-10-14T12:52:58.412Z,522
2017-10-14T12:53:58.503Z,526
2017-10-14T12:54:58.419Z,527
2017-10-14T12:55:58.487Z,523
2017-10-14T12:56:58.450Z,516
2017-10-14T12:57:58.503Z,512
2017-10-14T12:58:58.467Z,500
2017-10-14T12:59:58.468Z,495
2017-10-14T13:00:58.393Z,490
2017-10-14T13:01:58.466Z,489
2017-10-14T13:02:58.465Z,484
2017-10-14T13:03:58.466Z,482
2017-10-14T13:04:58.374Z,482
2017-10-14T13:05:58.375Z,481
2017-10-14T13:06:58.376Z,478
2017-10-14T13:07:58.385Z,476
2017-10-14T13:08:58.474Z,475
2017-10-14T13:09:58.378Z,466
2017-10-14T13:10:58.424Z,464
2017-10-14T13:11:58.434Z,463
2017-10-14T13:12:58.429Z,461
2017-10-14T13:13:58.431Z,460
2017-10-14T13:14:58.501Z,457
2017-10-14T13:15:58.528Z,449
2017-10-14T13:16:58.507Z,432
2017-10-14T13:17:58.520Z,441
2017-10-14T13:18:58.399Z,449
2017-10-14T13:19:58.523Z,449
2017-10-14T13:20:58.503Z,358
2017-10-14T13:21:58.436Z,437
2017-10-14T13:22:58.440Z,430
2017-10-14T13:23:58.440Z,434
2017-10-14T13:24:58.510Z,432
2017-10-14T13:25:58.472Z,437
2017-10-14T13:26:58.474Z,432
2017-10-14T13:27:58.443Z,402
2017-10-14T13:28:58.508Z,421
2017-10-14T13:29:58.535Z,407
2017-10-14T13:30:58.487Z,383
2017-10-14T13:31:58.393Z,404
2017-10-14T13:32:58.486Z,369
2017-10-14T13:33:58.442Z,416
2017-10-14T13:34:58.396Z,396
2017-10-14T13:35:58.446Z,65
2017-10-14T13:36:58.494Z,61
2017-10-14T13:38:58.443Z,396
2017-10-14T13:39:58.442Z,384
2017-10-14T13:40:58.398Z,388
2017-10-14T13:41:58.416Z,68
2017-10-14T13:42:58.521Z,67
2017-10-14T13:43:58.521Z,308
2017-10-14T13:44:58.443Z,57
2017-10-14T13:45:58.455Z,61
2017-10-14T13:46:58.528Z,104
2017-10-14T13:47:58.517Z,146
2017-10-14T13:48:58.541Z,334
2017-10-14T13:49:58.545Z,377
2017-10-14T13:50:58.451Z,382
2017-10-14T13:51:58.557Z,362
2017-10-14T13:52:58.437Z,341
2017-10-14T13:53:58.526Z,369
2017-10-14T13:54:58.460Z,317
2017-10-14T13:55:58.457Z,348
2017-10-14T13:56:58.555Z,355
2017-10-14T13:57:58.453Z,366
2017-10-14T13:58:58.527Z,334
2017-10-14T13:59:58.548Z,374
2017-10-14T14:00:58.546Z,351
2017-10-14T14:01:58.548Z,374
2017-10-14T14:02:58.530Z,371
2017-10-14T14:03:58.472Z,355
2017-10-14T14:04:58.511Z,335
2017-10-14T14:05:58.552Z,323
2017-10-14T14:06:58.434Z,297
2017-10-14T14:07:58.565Z,294
2017-10-14T14:08:58.516Z,312
2017-10-14T14:09:58.466Z,299
2017-10-14T14:10:58.539Z,287
2017-10-14T14:11:58.440Z,303
2017-10-14T14:12:58.609Z,87
2017-10-14T14:13:58.501Z,83
2017-10-14T14:14:58.467Z,115
2017-10-14T14:15:58.560Z,300